createdAt,value
2022-09-13T00:00:15.634Z,20.10
2022-09-13T00:02:43.470Z,20.10
2022-09-13T00:05:11.323Z,20.10
2022-09-13T00:07:39.139Z,20.10
2022-09-13T00:10:07.679Z,20.00
2022-09-13T00:12:35.515Z,20.10
2022-09-13T00:15:05.356Z,20.10
2022-09-13T00:17:33.220Z,20.10
2022-09-13T00:20:01.083Z,20.10
2022-09-13T00:22:29.218Z,20.00
2022-09-13T00:24:57.025Z,20.00
2022-09-13T00:27:25.111Z,20.00
2022-09-13T00:29:53.123Z,19.90
2022-09-13T00:32:22.325Z,19.90
2022-09-13T00:34:50.153Z,19.80
2022-09-13T00:37:18.027Z,19.80
2022-09-13T00:39:49.684Z,19.80
2022-09-13T00:42:17.827Z,19.80
2022-09-13T00:44:57.506Z,19.80
2022-09-13T00:47:34.055Z,19.80
2022-09-13T00:50:07.305Z,19.90
2022-09-13T00:52:36.601Z,19.90
2022-09-13T00:55:08.800Z,19.90
2022-09-13T00:57:37.627Z,19.90
2022-09-13T01:00:11.648Z,19.90
2022-09-13T01:02:43.452Z,19.90
2022-09-13T01:05:12.823Z,20.00
2022-09-13T01:07:41.770Z,19.90
2022-09-13T01:10:10.547Z,20.00
2022-09-13T01:12:46.502Z,19.90
2022-09-13T01:15:14.365Z,19.90
2022-09-13T01:17:45.505Z,19.80
2022-09-13T01:20:15.095Z,19.80
2022-09-13T01:23:23.851Z,19.80
2022-09-13T01:26:26.797Z,19.80
2022-09-13T01:29:21.758Z,19.80
2022-09-13T01:32:00.306Z,19.80
2022-09-13T01:34:37.025Z,19.70
2022-09-13T01:37:17.896Z,19.80
2022-09-13T01:40:01.108Z,19.70
2022-09-13T01:42:48.055Z,19.60
2022-09-13T01:45:25.076Z,19.60
2022-09-13T01:47:59.804Z,19.60
2022-09-13T01:50:38.460Z,19.50
2022-09-13T01:53:15.355Z,19.50
2022-09-13T01:55:49.321Z,19.50
2022-09-13T01:58:24.946Z,19.50
2022-09-13T02:00:59.550Z,19.50
2022-09-13T02:03:34.444Z,19.40
2022-09-13T02:06:07.171Z,19.40
2022-09-13T02:08:39.976Z,19.40
2022-09-13T02:11:11.587Z,19.40
2022-09-13T02:13:44.239Z,19.40
2022-09-13T02:16:17.756Z,19.40
2022-09-13T02:18:50.214Z,19.40
2022-09-13T02:21:22.437Z,19.40
2022-09-13T02:23:53.437Z,19.30
2022-09-13T02:26:23.462Z,19.40
2022-09-13T02:28:53.885Z,19.40
2022-09-13T02:31:27.827Z,19.40
2022-09-13T02:34:00.198Z,19.40
2022-09-13T02:36:32.468Z,19.40
2022-09-13T02:39:03.032Z,19.40
2022-09-13T02:41:36.881Z,19.30
2022-09-13T02:44:10.638Z,19.30
2022-09-13T02:46:53.982Z,19.30
2022-09-13T02:49:29.343Z,19.40
2022-09-13T02:52:08.101Z,19.30
2022-09-13T02:54:41.307Z,19.30
2022-09-13T02:57:15.726Z,19.20
2022-09-13T02:59:43.614Z,19.20
2022-09-13T03:02:15.711Z,19.20
2022-09-13T03:04:45.003Z,19.20
2022-09-13T03:07:13.641Z,19.10
2022-09-13T03:09:47.002Z,19.10
2022-09-13T03:13:06.774Z,19.20
2022-09-13T03:15:52.519Z,19.20
2022-09-13T03:18:38.351Z,19.20
2022-09-13T03:21:15.223Z,19.30
2022-09-13T03:23:56.608Z,19.30
2022-09-13T03:26:42.922Z,19.30
2022-09-13T03:29:23.546Z,19.40
2022-09-13T03:31:55.172Z,19.40
2022-09-13T03:34:37.659Z,19.50
2022-09-13T03:37:11.612Z,19.50
2022-09-13T03:39:45.458Z,19.60
2022-09-13T03:42:27.043Z,19.70
2022-09-13T03:44:58.111Z,19.70
2022-09-13T03:47:28.429Z,19.80
2022-09-13T03:49:58.002Z,19.80
2022-09-13T03:52:28.473Z,19.80
2022-09-13T03:54:56.337Z,19.90
2022-09-13T03:57:24.413Z,19.90
2022-09-13T03:59:54.379Z,19.80
2022-09-13T04:02:23.694Z,19.90
2022-09-13T04:04:51.785Z,19.80
2022-09-13T04:07:21.688Z,19.80
2022-09-13T04:09:51.030Z,19.70
2022-09-13T04:12:19.721Z,19.60
2022-09-13T04:14:47.817Z,19.50
2022-09-13T04:17:16.185Z,19.40
2022-09-13T04:19:46.983Z,19.40
2022-09-13T04:22:15.221Z,19.40
2022-09-13T04:24:44.228Z,19.40
2022-09-13T04:27:13.885Z,19.40
2022-09-13T04:29:41.793Z,19.40
2022-09-13T04:32:10.839Z,19.50
2022-09-13T04:34:38.698Z,19.50
2022-09-13T04:37:06.594Z,19.40
2022-09-13T04:39:34.493Z,19.40
2022-09-13T04:42:02.561Z,19.40
2022-09-13T04:44:31.959Z,19.50
2022-09-13T04:47:00.151Z,19.50
2022-09-13T04:49:28.046Z,19.50
2022-09-13T04:51:55.887Z,19.60
2022-09-13T04:54:24.127Z,19.60
2022-09-13T04:56:52.003Z,19.60
2022-09-13T04:59:19.873Z,19.70
2022-09-13T05:01:49.090Z,19.70
2022-09-13T05:04:17.158Z,19.70
2022-09-13T05:06:45.206Z,19.70
2022-09-13T05:09:15.067Z,19.70
2022-09-13T05:11:43.280Z,19.70
2022-09-13T05:14:12.597Z,19.70
2022-09-13T05:16:40.649Z,19.70
2022-09-13T05:19:11.156Z,19.70
2022-09-13T05:21:39.363Z,19.60
2022-09-13T05:24:07.406Z,19.50
2022-09-13T05:26:35.375Z,19.40
2022-09-13T05:29:03.589Z,19.40
2022-09-13T05:31:32.843Z,19.30
2022-09-13T05:34:02.495Z,19.40
2022-09-13T05:36:31.736Z,19.50
2022-09-13T05:41:48.941Z,19.60
2022-09-13T05:44:16.760Z,19.50
2022-09-13T05:46:48.181Z,19.50
2022-09-13T05:49:16.346Z,19.50
2022-09-13T05:51:45.531Z,19.40
2022-09-13T05:54:13.997Z,19.40
2022-09-13T05:56:42.160Z,19.20
2022-09-13T05:59:13.498Z,19.20
2022-09-13T06:01:41.370Z,19.10
2022-09-13T06:04:09.306Z,19.10
2022-09-13T06:06:37.179Z,19.10
2022-09-13T06:09:08.528Z,19.10
2022-09-13T06:11:36.385Z,19.10
2022-09-13T06:14:04.304Z,19.10
2022-09-13T06:16:32.638Z,19.00
2022-09-13T06:19:01.028Z,19.00
2022-09-13T06:21:29.424Z,19.00
2022-09-13T06:23:57.598Z,19.10
2022-09-13T06:26:28.783Z,19.20
2022-09-13T06:28:58.779Z,19.30
2022-09-13T06:31:28.773Z,19.40
2022-09-13T06:33:58.838Z,19.40
2022-09-13T06:36:27.182Z,19.40
2022-09-13T06:38:55.020Z,19.50
2022-09-13T06:41:24.919Z,19.50
2022-09-13T06:43:57.413Z,19.50
2022-09-13T06:46:26.206Z,19.50
2022-09-13T06:48:54.227Z,19.60
2022-09-13T06:51:23.483Z,19.60
2022-09-13T06:53:51.885Z,19.60
2022-09-13T06:56:22.025Z,19.50
2022-09-13T06:58:51.785Z,19.60
2022-09-13T07:01:23.543Z,19.60
2022-09-13T07:03:54.267Z,19.60
2022-09-13T07:06:24.227Z,19.60
2022-09-13T07:08:53.565Z,19.60
2022-09-13T07:11:23.418Z,19.60
2022-09-13T07:13:52.242Z,19.60
2022-09-13T07:16:23.463Z,19.60
2022-09-13T07:18:53.444Z,19.60
2022-09-13T07:21:22.133Z,19.60
2022-09-13T07:23:50.743Z,19.70
2022-09-13T07:26:18.618Z,19.80
2022-09-13T07:28:48.911Z,19.70
2022-09-13T07:31:20.677Z,19.70
2022-09-13T07:33:55.278Z,19.70
2022-09-13T07:36:24.226Z,19.80
2022-09-13T07:38:52.921Z,19.90
2022-09-13T07:41:22.899Z,20.00
2022-09-13T07:43:51.746Z,20.10
2022-09-13T07:46:22.185Z,20.10
2022-09-13T07:48:54.044Z,20.10
2022-09-13T07:51:23.616Z,20.10
2022-09-13T07:53:57.090Z,20.20
2022-09-13T07:56:27.215Z,20.30
2022-09-13T07:58:55.928Z,20.40
2022-09-13T08:01:25.568Z,20.40
2022-09-13T08:03:56.425Z,20.50
2022-09-13T08:06:25.677Z,20.50
2022-09-13T08:08:53.843Z,20.60
2022-09-13T08:11:23.669Z,20.70
2022-09-13T08:13:52.881Z,20.70
2022-09-13T08:16:22.483Z,20.80
2022-09-13T08:18:51.491Z,20.90
2022-09-13T08:21:20.952Z,21.00
2022-09-13T08:23:49.302Z,21.20
2022-09-13T08:26:18.254Z,21.30
2022-09-13T08:28:46.169Z,21.40
2022-09-13T08:31:17.607Z,21.50
2022-09-13T08:33:47.181Z,21.50
2022-09-13T08:36:16.144Z,21.70
2022-09-13T08:38:48.432Z,21.80
2022-09-13T08:41:34.746Z,21.90
2022-09-13T08:44:09.110Z,22.10
2022-09-13T08:46:39.838Z,22.30
2022-09-13T08:49:16.399Z,22.50
2022-09-13T08:51:48.892Z,22.60
2022-09-13T08:54:20.192Z,22.80
2022-09-13T08:56:53.759Z,22.90
2022-09-13T08:59:46.389Z,23.10
2022-09-13T09:02:25.941Z,23.30
2022-09-13T09:05:06.977Z,23.50
2022-09-13T09:07:38.147Z,23.60
2022-09-13T09:10:16.911Z,23.70
2022-09-13T09:12:48.395Z,23.80
2022-09-13T09:15:19.085Z,23.90
2022-09-13T09:17:52.980Z,24.10
2022-09-13T09:20:26.654Z,24.10
2022-09-13T09:22:56.123Z,24.10
2022-09-13T09:25:27.149Z,24.20
2022-09-13T09:27:55.154Z,24.20
2022-09-13T09:30:22.979Z,24.20
2022-09-13T09:33:11.546Z,24.30
2022-09-13T09:35:52.885Z,24.40
2022-09-13T09:38:37.211Z,24.50
2022-09-13T09:41:13.895Z,24.70
2022-09-13T09:43:48.024Z,24.80
2022-09-13T09:46:17.821Z,24.90
2022-09-13T09:48:51.272Z,25.00
2022-09-13T09:51:22.142Z,25.10
2022-09-13T09:53:53.842Z,25.20
2022-09-13T09:56:25.878Z,25.30
2022-09-13T09:58:56.114Z,25.20
2022-09-13T10:01:26.886Z,25.30
2022-09-13T10:04:08.486Z,25.40
2022-09-13T10:06:37.973Z,25.50
2022-09-13T10:09:08.008Z,25.50
2022-09-13T10:11:46.192Z,25.70
2022-09-13T10:14:37.405Z,25.80
2022-09-13T10:17:17.662Z,25.90
2022-09-13T10:19:54.212Z,26.00
2022-09-13T10:22:22.945Z,25.90
2022-09-13T10:24:51.317Z,26.00
2022-09-13T10:27:28.585Z,26.10
2022-09-13T10:29:59.677Z,26.20
2022-09-13T10:32:29.445Z,26.30
2022-09-13T10:35:04.132Z,26.40
2022-09-13T10:37:35.314Z,26.40
2022-09-13T10:40:08.262Z,26.50
2022-09-13T10:42:37.818Z,26.40
2022-09-13T10:45:07.587Z,26.40
2022-09-13T10:47:40.280Z,26.60
2022-09-13T10:50:21.490Z,26.80
2022-09-13T10:52:50.746Z,26.90
2022-09-13T10:55:35.525Z,27.10
2022-09-13T10:58:19.237Z,27.20
2022-09-13T11:01:15.980Z,27.30
2022-09-13T11:03:59.683Z,27.30
2022-09-13T11:06:37.656Z,27.50
2022-09-13T11:09:11.255Z,27.60
2022-09-13T11:11:45.688Z,27.70
2022-09-13T11:14:35.434Z,28.00
2022-09-13T11:17:16.461Z,28.20
2022-09-13T11:20:17.904Z,28.50
2022-09-13T11:23:20.708Z,28.50
2022-09-13T11:26:11.393Z,28.50
2022-09-13T11:28:53.895Z,28.60
2022-09-13T11:31:35.119Z,28.80
2022-09-13T11:34:25.835Z,28.90
2022-09-13T11:37:23.007Z,29.40
2022-09-13T11:39:59.774Z,30.00
2022-09-13T11:42:44.085Z,30.80
2022-09-13T11:45:30.570Z,31.70
2022-09-13T11:48:20.970Z,32.40
2022-09-13T11:51:00.434Z,33.40
2022-09-13T11:53:45.236Z,34.40
2022-09-13T11:56:17.902Z,35.60
2022-09-13T11:58:51.651Z,36.40
2022-09-13T12:01:24.691Z,36.70
2022-09-13T12:03:59.466Z,36.60
2022-09-13T12:06:31.427Z,37.50
2022-09-13T12:09:03.874Z,38.60
2022-09-13T12:11:35.873Z,39.10
2022-09-13T12:14:06.553Z,38.60
2022-09-13T12:16:39.616Z,38.60
2022-09-13T12:19:15.300Z,38.70
2022-09-13T12:21:45.444Z,38.60
2022-09-13T12:24:18.183Z,39.10
2022-09-13T12:26:51.633Z,40.00
2022-09-13T12:29:24.946Z,41.30
2022-09-13T12:31:57.386Z,42.40
2022-09-13T12:34:31.043Z,43.50
2022-09-13T12:37:32.541Z,43.80
2022-09-13T12:40:18.481Z,43.40
2022-09-13T12:43:08.040Z,43.50
2022-09-13T12:46:12.545Z,43.30
2022-09-13T12:49:18.706Z,42.60
2022-09-13T12:52:01.673Z,42.30
2022-09-13T12:55:04.813Z,41.50
2022-09-13T12:57:43.315Z,41.60
2022-09-13T13:00:17.461Z,42.40
2022-09-13T13:02:54.609Z,42.80
2022-09-13T13:05:27.649Z,43.10
2022-09-13T13:08:00.726Z,43.90
2022-09-13T13:10:32.136Z,44.10
2022-09-13T13:13:14.168Z,44.20
2022-09-13T13:16:06.054Z,44.40
2022-09-13T13:18:45.642Z,44.90
2022-09-13T13:21:39.084Z,45.60
2022-09-13T13:24:44.452Z,46.50
2022-09-13T13:27:37.501Z,47.20
2022-09-13T13:30:43.834Z,47.20
2022-09-13T13:33:18.077Z,47.70
2022-09-13T13:35:46.331Z,47.90
2022-09-13T13:38:31.852Z,47.90
2022-09-13T13:41:12.904Z,48.00
2022-09-13T13:43:42.278Z,48.20
2022-09-13T13:46:31.784Z,47.90
2022-09-13T13:49:33.722Z,47.80
2022-09-13T13:52:39.259Z,47.90
2022-09-13T13:55:30.007Z,47.80
2022-09-13T13:58:02.276Z,47.20
2022-09-13T14:00:35.092Z,46.70
2022-09-13T14:03:15.891Z,45.60
2022-09-13T14:05:52.272Z,44.40
2022-09-13T14:08:36.106Z,43.30
2022-09-13T14:11:15.105Z,42.20
2022-09-13T14:13:56.835Z,41.00
2022-09-13T14:16:39.524Z,39.80
2022-09-13T14:19:20.025Z,39.10
2022-09-13T14:22:05.408Z,38.30
2022-09-13T14:24:38.157Z,37.70
2022-09-13T14:27:09.507Z,36.80
2022-09-13T14:29:37.686Z,36.10
2022-09-13T14:32:10.645Z,35.50
2022-09-13T14:34:39.542Z,35.00
2022-09-13T14:37:18.291Z,34.60
2022-09-13T14:39:56.446Z,34.20
2022-09-13T14:42:26.626Z,33.80
2022-09-13T14:44:54.650Z,33.50
2022-09-13T14:47:30.000Z,33.20
2022-09-13T14:50:03.717Z,32.90
2022-09-13T14:52:36.090Z,32.60
2022-09-13T14:55:46.179Z,32.40
2022-09-13T14:58:19.646Z,32.10
2022-09-13T15:00:56.167Z,31.90
2022-09-13T15:03:25.972Z,31.80
2022-09-13T15:05:57.201Z,31.70
2022-09-13T15:08:43.459Z,31.70
2022-09-13T15:11:16.174Z,31.70
2022-09-13T15:13:45.156Z,31.60
2022-09-13T15:16:27.723Z,31.60
2022-09-13T15:19:18.375Z,31.50
2022-09-13T15:21:46.627Z,31.50
2022-09-13T15:24:22.525Z,31.30
2022-09-13T15:27:01.691Z,31.30
2022-09-13T15:29:34.552Z,31.20
2022-09-13T15:32:03.356Z,31.00
2022-09-13T15:34:33.283Z,30.80
2022-09-13T15:37:11.906Z,30.60
2022-09-13T15:39:48.664Z,30.40
2022-09-13T15:42:17.888Z,30.30
2022-09-13T15:44:45.781Z,30.00
2022-09-13T15:47:18.540Z,29.80
2022-09-13T15:49:55.090Z,29.60
2022-09-13T15:52:23.859Z,29.40
2022-09-13T15:54:52.183Z,29.20
2022-09-13T15:57:23.670Z,29.10
2022-09-13T15:59:52.690Z,29.00
2022-09-13T16:02:29.172Z,28.90
2022-09-13T16:04:58.652Z,28.80
2022-09-13T16:07:27.991Z,28.70
2022-09-13T16:09:55.958Z,28.60
2022-09-13T16:12:26.981Z,28.60
2022-09-13T16:14:55.259Z,28.50
2022-09-13T16:17:25.333Z,28.40
2022-09-13T16:19:53.968Z,28.40
2022-09-13T16:22:23.757Z,28.30
2022-09-13T16:24:51.628Z,28.20
2022-09-13T16:27:21.073Z,28.10
2022-09-13T16:29:49.130Z,28.10
2022-09-13T16:32:17.112Z,28.00
2022-09-13T16:34:45.013Z,28.00
2022-09-13T16:37:15.529Z,27.90
2022-09-13T16:39:45.308Z,27.80
2022-09-13T16:42:13.492Z,27.80
2022-09-13T16:44:42.035Z,27.70
2022-09-13T16:47:09.993Z,27.60
2022-09-13T16:49:40.651Z,27.60
2022-09-13T16:52:12.561Z,27.50
2022-09-13T16:54:40.684Z,27.50
2022-09-13T16:57:10.374Z,27.40
2022-09-13T16:59:38.221Z,27.30
2022-09-13T17:02:06.442Z,27.30
2022-09-13T17:04:34.455Z,27.20
2022-09-13T17:07:04.823Z,27.10
2022-09-13T17:09:34.486Z,27.10
2022-09-13T17:12:02.753Z,27.00
2022-09-13T17:14:33.270Z,27.00
2022-09-13T17:17:01.957Z,26.90
2022-09-13T17:19:33.398Z,26.90
2022-09-13T17:22:03.232Z,26.80
2022-09-13T17:24:31.823Z,26.80
2022-09-13T17:27:00.255Z,26.70
2022-09-13T17:29:30.808Z,26.70
2022-09-13T17:32:00.416Z,26.60
2022-09-13T17:34:28.894Z,26.50
2022-09-13T17:36:57.060Z,26.50
2022-09-13T17:39:24.998Z,26.50
2022-09-13T17:41:52.846Z,26.40
2022-09-13T17:44:20.683Z,26.40
2022-09-13T17:46:48.575Z,26.30
2022-09-13T17:49:17.867Z,26.30
2022-09-13T17:51:45.710Z,26.30
2022-09-13T17:54:14.092Z,26.20
2022-09-13T17:56:43.777Z,26.10
2022-09-13T17:59:14.113Z,26.10
2022-09-13T18:01:43.969Z,26.00
2022-09-13T18:04:13.397Z,26.00
2022-09-13T18:06:44.212Z,26.00
2022-09-13T18:09:13.847Z,26.00
2022-09-13T18:11:42.311Z,25.90
2022-09-13T18:14:13.280Z,25.80
2022-09-13T18:16:41.163Z,25.80
2022-09-13T18:19:09.112Z,25.80
2022-09-13T18:21:36.992Z,25.70
2022-09-13T18:24:06.820Z,25.70
2022-09-13T18:26:35.438Z,25.70
2022-09-13T18:29:05.148Z,25.60
2022-09-13T18:31:35.411Z,25.60
2022-09-13T18:34:05.405Z,25.50
2022-09-13T18:36:34.355Z,25.40
2022-09-13T18:39:04.129Z,25.40
2022-09-13T18:41:34.741Z,25.40
2022-09-13T18:44:04.840Z,25.20
2022-09-13T18:46:34.195Z,25.10
2022-09-13T18:49:03.120Z,25.10
2022-09-13T18:51:33.598Z,25.00
2022-09-13T18:54:02.390Z,24.90
2022-09-13T18:56:30.729Z,24.80
2022-09-13T18:59:01.211Z,24.70
2022-09-13T19:01:31.423Z,24.50
2022-09-13T19:04:01.215Z,24.40
2022-09-13T19:06:31.598Z,24.30
2022-09-13T19:09:00.976Z,24.20
2022-09-13T19:11:46.477Z,24.10
2022-09-13T19:14:18.061Z,24.10
2022-09-13T19:16:45.971Z,24.10
2022-09-13T19:19:13.946Z,24.00
2022-09-13T19:21:41.888Z,24.00
2022-09-13T19:24:17.745Z,23.90
2022-09-13T19:26:47.841Z,23.80
2022-09-13T19:29:18.761Z,23.90
2022-09-13T19:31:49.468Z,23.90
2022-09-13T19:34:19.266Z,23.90
2022-09-13T19:36:49.290Z,23.90
2022-09-13T19:39:17.487Z,24.00
2022-09-13T19:41:45.379Z,24.00
2022-09-13T19:44:14.214Z,24.00
2022-09-13T19:46:44.040Z,24.00
2022-09-13T19:49:15.046Z,24.00
2022-09-13T19:51:47.621Z,24.00
2022-09-13T19:54:20.438Z,24.00
2022-09-13T19:56:48.283Z,24.00
2022-09-13T19:59:19.649Z,24.00
2022-09-13T20:01:49.271Z,23.90
2022-09-13T20:04:19.169Z,23.90
2022-09-13T20:06:48.960Z,23.90
2022-09-13T20:09:18.588Z,24.00
2022-09-13T20:11:48.326Z,23.90
2022-09-13T20:14:18.359Z,23.90
2022-09-13T20:16:48.073Z,23.90
2022-09-13T20:19:39.714Z,23.80
2022-09-13T20:22:07.191Z,23.70
2022-09-13T20:24:35.054Z,23.70
2022-09-13T20:27:02.923Z,23.70
2022-09-13T20:29:31.385Z,23.70
2022-09-13T20:32:02.205Z,23.60
2022-09-13T20:34:30.087Z,23.50
2022-09-13T20:36:57.886Z,23.50
2022-09-13T20:39:25.703Z,23.50
2022-09-13T20:41:54.515Z,23.40
2022-09-13T20:44:22.547Z,23.40
2022-09-13T20:46:50.372Z,23.30
2022-09-13T20:49:19.556Z,23.20
2022-09-13T20:51:49.237Z,23.10
2022-09-13T20:54:17.282Z,23.10
2022-09-13T20:56:46.214Z,23.10
2022-09-13T20:59:14.431Z,23.10
2022-09-13T21:01:42.381Z,23.00
2022-09-13T21:04:10.546Z,22.80
2022-09-13T21:07:01.266Z,22.70
2022-09-13T21:09:28.558Z,22.60
2022-09-13T21:11:56.424Z,22.50
2022-09-13T21:14:24.231Z,22.50
2022-09-13T21:16:52.631Z,22.40
2022-09-13T21:19:20.512Z,22.40
2022-09-13T21:21:49.693Z,22.40
2022-09-13T21:24:17.738Z,22.30
2022-09-13T21:26:45.941Z,22.20
2022-09-13T21:29:13.793Z,22.10
2022-09-13T21:31:42.035Z,22.10
2022-09-13T21:34:14.559Z,22.10
2022-09-13T21:36:42.840Z,22.00
2022-09-13T21:39:12.711Z,21.90
2022-09-13T21:41:41.215Z,21.90
2022-09-13T21:44:09.145Z,21.90
2022-09-13T21:46:38.114Z,22.00
2022-09-13T21:49:08.007Z,22.10
2022-09-13T21:51:38.278Z,22.10
2022-09-13T21:54:08.597Z,22.10
2022-09-13T21:56:40.813Z,22.00
2022-09-13T21:59:14.455Z,22.00
2022-09-13T22:01:44.206Z,22.00
2022-09-13T22:04:16.538Z,22.00
2022-09-13T22:06:45.068Z,22.10
2022-09-13T22:09:14.403Z,22.10
2022-09-13T22:11:45.417Z,22.20
2022-09-13T22:14:14.901Z,22.20
2022-09-13T22:16:44.343Z,22.30
2022-09-13T22:19:14.426Z,22.30
2022-09-13T22:21:44.711Z,22.30
2022-09-13T22:24:16.024Z,22.40
2022-09-13T22:26:45.977Z,22.40
2022-09-13T22:29:15.117Z,22.30
2022-09-13T22:31:44.793Z,22.30
2022-09-13T22:34:14.758Z,22.30
2022-09-13T22:36:43.114Z,22.20
2022-09-13T22:39:12.543Z,22.00
2022-09-13T22:41:40.671Z,22.00
2022-09-13T22:44:10.377Z,22.00
2022-09-13T22:46:40.294Z,22.00
2022-09-13T22:49:09.075Z,22.00
2022-09-13T22:51:37.103Z,22.00
2022-09-13T22:54:07.277Z,22.00
2022-09-13T22:56:36.674Z,22.00
2022-09-13T22:59:07.423Z,21.90
2022-09-13T23:01:37.831Z,21.90
2022-09-13T23:04:06.657Z,21.80
2022-09-13T23:06:35.827Z,21.80
2022-09-13T23:09:06.383Z,21.80
2022-09-13T23:11:36.113Z,21.80
2022-09-13T23:14:06.471Z,21.80
2022-09-13T23:16:38.534Z,21.90
2022-09-13T23:19:07.074Z,21.80
2022-09-13T23:21:37.169Z,21.80
2022-09-13T23:24:07.370Z,21.70
2022-09-13T23:26:35.447Z,21.60
2022-09-13T23:29:05.453Z,21.60
2022-09-13T23:31:34.986Z,21.60
2022-09-13T23:34:06.666Z,21.70
2022-09-13T23:36:36.313Z,21.70
2022-09-13T23:39:06.718Z,21.70
2022-09-13T23:41:35.236Z,21.60
2022-09-13T23:44:03.779Z,21.60
2022-09-13T23:46:32.242Z,21.60
2022-09-13T23:49:00.041Z,21.60
2022-09-13T23:51:29.250Z,21.60
2022-09-13T23:53:58.575Z,21.50
2022-09-13T23:56:28.039Z,21.50
2022-09-13T23:58:57.750Z,21.40
